Terminal Aerodrome Forecast
Issued by NWS

Current Version | Previous Version | Text Only | Print | Product List | Glossary On
Versions: 1 2 3 4 5 6 7 8 9 10 11 12
000
FTUS41 KLWX 202300
TAFMTN
TAF
KMTN 202334Z 2100/2124 16010G17KT P6SM BKN040
     FM211100 VRB03KT P6SM BKN060
     FM211800 VRB03KT 6SM -SHRA BKN060
      AMD NOT SKED 2102/2112=

USA.gov is the U.S. government's official web portal to all federal, state and local government web resources and services.